createdAt,value
2022-11-08T00:02:06.929Z,10.72
2022-11-08T00:04:34.774Z,10.55
2022-11-08T00:07:19.769Z,10.74
2022-11-08T00:10:04.960Z,10.68
2022-11-08T00:12:50.436Z,10.74
2022-11-08T00:15:17.469Z,10.77
2022-11-08T00:17:44.460Z,10.78
2022-11-08T00:20:11.502Z,10.67
2022-11-08T00:22:38.152Z,10.68
2022-11-08T00:25:05.315Z,10.52
2022-11-08T00:27:31.997Z,10.61
2022-11-08T00:29:58.536Z,10.61
2022-11-08T00:32:26.301Z,10.65
2022-11-08T00:34:53.192Z,10.45
2022-11-08T00:37:21.602Z,10.28
2022-11-08T00:39:49.163Z,10.21
2022-11-08T00:42:16.155Z,10.25
2022-11-08T00:44:42.742Z,10.17
2022-11-08T00:47:09.759Z,10.22
2022-11-08T00:49:36.403Z,10.10
2022-11-08T00:52:03.497Z,10.00
2022-11-08T00:54:30.347Z,10.18
2022-11-08T00:56:56.967Z,9.97
2022-11-08T00:59:23.769Z,10.02
2022-11-08T01:01:50.604Z,10.02
2022-11-08T01:04:19.027Z,10.02
2022-11-08T01:06:45.986Z,10.16
2022-11-08T01:09:13.557Z,10.21
2022-11-08T01:11:45.331Z,10.23
2022-11-08T01:14:13.563Z,10.15
2022-11-08T01:16:41.137Z,10.26
2022-11-08T01:19:08.194Z,10.33
2022-11-08T01:21:35.119Z,10.25
2022-11-08T01:24:01.864Z,10.30
2022-11-08T01:26:29.458Z,10.24
2022-11-08T01:28:57.451Z,10.26
2022-11-08T01:31:29.644Z,10.21
2022-11-08T01:33:57.150Z,10.15
2022-11-08T01:36:26.106Z,10.07
2022-11-08T01:38:54.089Z,9.92
2022-11-08T01:41:23.623Z,10.03
2022-11-08T01:43:56.312Z,9.94
2022-11-08T01:46:38.122Z,9.95
2022-11-08T01:49:15.682Z,9.88
2022-11-08T01:52:15.169Z,9.86
2022-11-08T01:55:15.922Z,9.76
2022-11-08T01:57:52.682Z,9.69
2022-11-08T02:00:19.913Z,9.70
2022-11-08T02:02:54.745Z,9.67
2022-11-08T02:05:27.344Z,9.55
2022-11-08T02:08:11.386Z,9.56
2022-11-08T02:10:44.946Z,9.46
2022-11-08T02:13:15.680Z,9.47
2022-11-08T02:15:43.401Z,9.44
2022-11-08T02:18:11.514Z,9.52
2022-11-08T02:20:40.602Z,9.58
2022-11-08T02:23:45.282Z,9.53
2022-11-08T02:26:13.005Z,9.55
2022-11-08T02:28:40.950Z,9.65
2022-11-08T02:31:12.827Z,9.68
2022-11-08T02:33:39.680Z,9.77
2022-11-08T02:36:08.296Z,9.76
2022-11-08T02:38:43.228Z,9.87
2022-11-08T02:41:09.880Z,9.93
2022-11-08T02:43:36.779Z,9.91
2022-11-08T02:46:03.742Z,9.92
2022-11-08T02:48:30.595Z,10.01
2022-11-08T02:50:57.764Z,10.06
2022-11-08T02:53:24.409Z,10.11
2022-11-08T02:55:51.293Z,10.08
2022-11-08T02:58:18.251Z,10.08
2022-11-08T03:00:45.111Z,10.20
2022-11-08T03:03:11.793Z,10.23
2022-11-08T03:05:38.456Z,10.25
2022-11-08T03:08:05.215Z,10.38
2022-11-08T03:10:32.006Z,10.46
2022-11-08T03:13:01.352Z,10.56
2022-11-08T03:15:29.231Z,10.59
2022-11-08T03:17:56.919Z,10.62
2022-11-08T03:20:25.333Z,10.61
2022-11-08T03:23:03.585Z,10.54
2022-11-08T03:25:30.528Z,10.47
2022-11-08T03:28:02.949Z,10.35
2022-11-08T03:30:29.606Z,10.31
2022-11-08T03:32:56.414Z,10.32
2022-11-08T03:35:23.144Z,10.39
2022-11-08T03:37:51.605Z,10.37
2022-11-08T03:40:19.241Z,10.12
2022-11-08T03:42:46.164Z,10.25
2022-11-08T03:45:13.669Z,10.21
2022-11-08T03:47:42.718Z,10.17
2022-11-08T03:50:10.673Z,9.90
2022-11-08T03:52:49.966Z,9.93
2022-11-08T03:55:18.550Z,9.98
2022-11-08T03:57:47.517Z,9.81
2022-11-08T04:00:16.131Z,10.13
2022-11-08T04:02:43.097Z,9.86
2022-11-08T04:05:11.826Z,9.91
2022-11-08T04:07:38.944Z,9.96
2022-11-08T04:10:07.882Z,10.05
2022-11-08T04:12:53.069Z,9.88
2022-11-08T04:15:22.705Z,10.09
2022-11-08T04:18:10.578Z,10.14
2022-11-08T04:21:00.239Z,9.97
2022-11-08T04:23:28.750Z,10.06
2022-11-08T04:25:57.714Z,10.18
2022-11-08T04:28:26.317Z,10.25
2022-11-08T04:30:54.862Z,10.34
2022-11-08T04:33:24.412Z,10.22
2022-11-08T04:35:53.341Z,10.31
2022-11-08T04:38:20.916Z,10.45
2022-11-08T04:40:48.083Z,10.35
2022-11-08T04:43:15.058Z,10.52
2022-11-08T04:45:41.742Z,10.51
2022-11-08T04:48:08.893Z,10.39
2022-11-08T04:50:36.621Z,10.55
2022-11-08T04:53:04.059Z,10.32
2022-11-08T04:55:30.722Z,10.49
2022-11-08T04:57:58.994Z,10.59
2022-11-08T05:00:26.556Z,10.52
2022-11-08T05:02:53.841Z,10.27
2022-11-08T05:05:20.718Z,10.54
2022-11-08T05:07:47.375Z,10.50
2022-11-08T05:10:14.195Z,10.39
2022-11-08T05:12:40.873Z,10.17
2022-11-08T05:15:08.536Z,10.38
2022-11-08T05:17:35.268Z,10.34
2022-11-08T05:20:20.840Z,10.36
2022-11-08T05:23:05.935Z,10.40
2022-11-08T05:25:32.960Z,10.54
2022-11-08T05:27:59.580Z,10.60
2022-11-08T05:30:26.602Z,10.60
2022-11-08T05:32:53.457Z,10.75
2022-11-08T05:35:21.747Z,10.72
2022-11-08T05:37:48.811Z,10.77
2022-11-08T05:40:15.638Z,10.78
2022-11-08T05:42:42.683Z,10.82
2022-11-08T05:45:09.841Z,10.75
2022-11-08T05:47:37.127Z,10.76
2022-11-08T05:50:04.355Z,10.79
2022-11-08T05:52:31.166Z,10.70
2022-11-08T05:54:58.049Z,10.74
2022-11-08T05:57:24.673Z,10.84
2022-11-08T05:59:51.557Z,10.86
2022-11-08T06:02:18.616Z,10.88
2022-11-08T06:04:45.422Z,10.67
2022-11-08T06:07:12.133Z,10.78
2022-11-08T06:09:40.095Z,10.84
2022-11-08T06:12:08.008Z,10.69
2022-11-08T06:14:34.893Z,10.82
2022-11-08T06:17:01.607Z,10.73
2022-11-08T06:19:28.471Z,10.60
2022-11-08T06:21:55.075Z,10.83
2022-11-08T06:24:21.653Z,10.97
2022-11-08T06:26:48.439Z,10.78
2022-11-08T06:29:15.107Z,10.96
2022-11-08T06:31:43.165Z,11.13
2022-11-08T06:34:10.608Z,11.06
2022-11-08T06:36:37.327Z,10.98
2022-11-08T06:39:04.135Z,11.30
2022-11-08T06:41:30.781Z,11.47
2022-11-08T06:43:57.356Z,11.42
2022-11-08T06:46:24.448Z,11.48
2022-11-08T06:48:51.350Z,11.51
2022-11-08T06:51:18.756Z,11.51
2022-11-08T06:53:45.433Z,11.37
2022-11-08T06:56:12.560Z,11.40
2022-11-08T06:58:39.678Z,11.45
2022-11-08T07:01:09.063Z,11.40
2022-11-08T07:03:35.774Z,11.62
2022-11-08T07:06:04.428Z,11.61
2022-11-08T07:08:32.305Z,11.76
2022-11-08T07:10:59.622Z,11.77
2022-11-08T07:13:26.365Z,11.71
2022-11-08T07:15:53.257Z,11.89
2022-11-08T07:18:20.163Z,11.82
2022-11-08T07:20:47.284Z,11.92
2022-11-08T07:23:13.970Z,11.90
2022-11-08T07:25:40.959Z,11.77
2022-11-08T07:28:17.755Z,12.02
2022-11-08T07:30:46.265Z,12.10
2022-11-08T07:33:13.649Z,12.15
2022-11-08T07:35:40.612Z,12.18
2022-11-08T07:38:07.863Z,12.23
2022-11-08T07:40:35.313Z,12.25
2022-11-08T07:43:17.514Z,12.34
2022-11-08T07:45:44.194Z,12.38
2022-11-08T07:48:13.800Z,12.43
2022-11-08T07:50:43.789Z,12.53
2022-11-08T07:53:11.265Z,12.67
2022-11-08T07:55:38.985Z,12.68
2022-11-08T07:58:06.126Z,12.75
2022-11-08T08:00:36.531Z,12.76
2022-11-08T08:03:05.118Z,12.72
2022-11-08T08:05:35.616Z,12.84
2022-11-08T08:08:03.073Z,12.94
2022-11-08T08:10:31.752Z,12.96
2022-11-08T08:12:58.639Z,13.11
2022-11-08T08:15:26.593Z,13.07
2022-11-08T08:17:53.626Z,13.04
2022-11-08T08:20:20.233Z,13.14
2022-11-08T08:22:49.040Z,13.12
2022-11-08T08:25:16.824Z,12.99
2022-11-08T08:27:50.965Z,13.00
2022-11-08T08:30:18.661Z,12.74
2022-11-08T08:32:53.592Z,12.92
2022-11-08T08:35:29.646Z,13.00
2022-11-08T08:38:00.654Z,13.06
2022-11-08T08:40:27.957Z,13.21
2022-11-08T08:42:54.645Z,13.19
2022-11-08T08:45:21.215Z,13.12
2022-11-08T08:47:53.219Z,13.00
2022-11-08T08:50:20.977Z,13.08
2022-11-08T08:52:48.064Z,13.16
2022-11-08T08:55:15.465Z,13.24
2022-11-08T08:57:46.640Z,13.27
2022-11-08T09:03:06.609Z,13.48
2022-11-08T09:05:34.369Z,13.63
2022-11-08T09:08:01.508Z,13.67
2022-11-08T09:10:28.937Z,13.91
2022-11-08T09:12:55.957Z,14.15
2022-11-08T09:15:22.562Z,14.09
2022-11-08T09:17:49.148Z,14.11
2022-11-08T09:20:16.405Z,14.34
2022-11-08T09:22:43.115Z,14.21
2022-11-08T09:25:10.743Z,14.00
2022-11-08T09:27:37.655Z,14.19
2022-11-08T09:30:05.387Z,14.31
2022-11-08T09:32:46.519Z,14.15
2022-11-08T09:35:18.902Z,14.28
2022-11-08T09:37:48.710Z,14.50
2022-11-08T09:40:48.995Z,14.58
2022-11-08T09:43:41.929Z,14.70
2022-11-08T09:46:17.547Z,14.84
2022-11-08T09:48:45.256Z,14.81
2022-11-08T09:51:21.288Z,14.98
2022-11-08T09:53:55.079Z,14.93
2022-11-08T09:56:21.663Z,15.03
2022-11-08T09:59:11.626Z,15.28
2022-11-08T10:01:39.084Z,15.08
2022-11-08T10:04:19.365Z,15.17
2022-11-08T10:07:24.775Z,15.36
2022-11-08T10:10:17.140Z,15.47
2022-11-08T10:12:49.612Z,15.70
2022-11-08T10:15:31.314Z,15.69
2022-11-08T10:18:04.194Z,15.87
2022-11-08T10:20:52.760Z,15.92
2022-11-08T10:23:42.284Z,15.87
2022-11-08T10:26:26.739Z,16.10
2022-11-08T10:29:08.890Z,15.91
2022-11-08T10:31:38.757Z,16.20
2022-11-08T10:34:15.407Z,16.11
2022-11-08T10:36:45.475Z,15.77
2022-11-08T10:39:23.282Z,15.60
2022-11-08T10:42:22.237Z,15.85
2022-11-08T10:44:48.992Z,15.66
2022-11-08T10:47:34.413Z,15.93
2022-11-08T10:50:04.298Z,16.23
2022-11-08T10:52:42.435Z,16.54
2022-11-08T10:55:22.718Z,16.56
2022-11-08T10:57:49.446Z,16.82
2022-11-08T11:00:24.671Z,17.33
2022-11-08T11:03:06.342Z,17.53
2022-11-08T11:05:35.688Z,17.00
2022-11-08T11:08:10.159Z,16.68
2022-11-08T11:10:48.651Z,16.43
2022-11-08T11:15:57.493Z,16.27
2022-11-08T11:18:30.749Z,16.16
2022-11-08T11:21:10.410Z,16.28
2022-11-08T11:23:47.475Z,16.28
2022-11-08T11:26:32.194Z,16.18
2022-11-08T11:29:03.952Z,15.93
2022-11-08T11:31:36.911Z,15.70
2022-11-08T11:34:18.841Z,15.84
2022-11-08T11:36:48.390Z,15.48
2022-11-08T11:39:46.118Z,15.43
2022-11-08T11:42:48.580Z,15.58
2022-11-08T11:45:21.651Z,15.59
2022-11-08T11:47:55.261Z,15.55
2022-11-08T11:50:38.393Z,15.43
2022-11-08T11:53:29.863Z,15.67
2022-11-08T11:56:11.715Z,15.80
2022-11-08T11:58:38.279Z,15.70
2022-11-08T12:01:17.902Z,15.93
2022-11-08T12:03:47.454Z,16.06
2022-11-08T12:06:51.673Z,16.15
2022-11-08T12:09:32.321Z,16.11
2022-11-08T12:12:16.058Z,15.90
2022-11-08T12:14:57.394Z,16.28
2022-11-08T12:17:33.841Z,16.54
2022-11-08T12:20:26.871Z,16.59
2022-11-08T12:23:03.029Z,17.03
2022-11-08T12:25:45.660Z,17.05
2022-11-08T12:28:42.321Z,16.99
2022-11-08T12:31:24.282Z,17.35
2022-11-08T12:34:00.910Z,17.59
2022-11-08T12:36:39.764Z,17.38
2022-11-08T12:39:27.813Z,17.28
2022-11-08T12:42:12.864Z,17.20
2022-11-08T12:45:01.265Z,17.12
2022-11-08T12:47:36.610Z,17.00
2022-11-08T12:50:30.008Z,17.37
2022-11-08T12:53:28.194Z,17.18
2022-11-08T12:55:57.370Z,17.01
2022-11-08T12:58:34.418Z,16.81
2022-11-08T13:01:13.244Z,17.20
2022-11-08T13:03:42.993Z,16.99
2022-11-08T13:06:20.374Z,17.18
2022-11-08T13:08:53.933Z,17.11
2022-11-08T13:11:43.492Z,16.85
2022-11-08T13:14:17.673Z,16.93
2022-11-08T13:17:05.536Z,17.12
2022-11-08T13:19:47.340Z,17.37
2022-11-08T13:22:29.284Z,17.16
2022-11-08T13:25:00.737Z,17.19
2022-11-08T13:27:41.422Z,17.08
2022-11-08T13:30:16.963Z,17.03
2022-11-08T13:32:43.504Z,17.21
2022-11-08T13:35:28.862Z,17.16
2022-11-08T13:38:23.530Z,16.68
2022-11-08T13:40:59.300Z,16.77
2022-11-08T13:43:31.424Z,16.93
2022-11-08T13:46:20.078Z,16.74
2022-11-08T13:49:14.934Z,16.42
2022-11-08T13:51:42.594Z,16.52
2022-11-08T13:54:21.434Z,16.54
2022-11-08T13:56:48.304Z,16.65
2022-11-08T13:59:30.116Z,16.60
2022-11-08T14:02:05.668Z,16.47
2022-11-08T14:04:38.820Z,16.60
2022-11-08T14:07:35.480Z,16.70
2022-11-08T14:10:22.845Z,16.66
2022-11-08T14:13:19.418Z,16.47
2022-11-08T14:15:53.869Z,16.15
2022-11-08T14:18:32.131Z,16.04
2022-11-08T14:20:59.358Z,16.05
2022-11-08T14:23:29.436Z,16.11
2022-11-08T14:25:57.944Z,16.06
2022-11-08T14:28:33.739Z,16.07
2022-11-08T14:31:03.711Z,15.88
2022-11-08T14:33:32.373Z,15.79
2022-11-08T14:36:05.360Z,15.65
2022-11-08T14:38:35.903Z,15.62
2022-11-08T14:41:05.521Z,15.75
2022-11-08T14:43:42.646Z,16.03
2022-11-08T14:46:34.461Z,15.96
2022-11-08T14:49:31.991Z,15.39
2022-11-08T14:52:19.116Z,15.10
2022-11-08T14:54:47.671Z,14.85
2022-11-08T14:57:42.124Z,14.66
2022-11-08T15:00:29.644Z,14.63
2022-11-08T15:03:06.414Z,14.43
2022-11-08T15:05:42.313Z,14.29
2022-11-08T15:08:21.915Z,14.34
2022-11-08T15:11:28.575Z,14.12
2022-11-08T15:14:19.636Z,13.98
2022-11-08T15:16:58.650Z,13.77
2022-11-08T15:19:38.105Z,13.73
2022-11-08T15:22:30.600Z,13.69
2022-11-08T15:25:19.135Z,13.66
2022-11-08T15:27:50.515Z,13.52
2022-11-08T15:30:19.499Z,13.52
2022-11-08T15:32:46.569Z,13.46
2022-11-08T15:35:28.390Z,13.47
2022-11-08T15:38:35.477Z,13.36
2022-11-08T15:41:05.264Z,13.30
2022-11-08T15:43:31.809Z,13.24
2022-11-08T15:46:03.802Z,13.14
2022-11-08T15:48:31.959Z,13.13
2022-11-08T15:50:59.020Z,13.04
2022-11-08T15:53:27.191Z,13.00
2022-11-08T15:56:04.899Z,12.99
2022-11-08T15:58:42.155Z,12.89
2022-11-08T16:01:22.955Z,12.85
2022-11-08T16:03:49.759Z,12.71
2022-11-08T16:06:16.790Z,12.74
2022-11-08T16:08:43.568Z,12.64
2022-11-08T16:11:22.948Z,12.60
2022-11-08T16:13:51.983Z,12.59
2022-11-08T16:16:18.591Z,12.52
2022-11-08T16:18:45.889Z,12.54
2022-11-08T16:21:13.838Z,12.58
2022-11-08T16:23:41.016Z,12.56
2022-11-08T16:26:12.539Z,12.45
2022-11-08T16:28:39.456Z,12.49
2022-11-08T16:31:10.389Z,12.37
2022-11-08T16:33:37.146Z,12.34
2022-11-08T16:36:13.257Z,12.28
2022-11-08T16:38:40.080Z,12.19
2022-11-08T16:41:06.776Z,12.20
2022-11-08T16:43:33.775Z,12.24
2022-11-08T16:46:06.735Z,12.18
2022-11-08T16:48:36.646Z,12.13
2022-11-08T16:51:05.977Z,12.11
2022-11-08T16:53:34.635Z,12.01
2022-11-08T16:56:01.575Z,12.06
2022-11-08T16:58:28.419Z,12.01
2022-11-08T17:00:56.394Z,11.95
2022-11-08T17:03:25.412Z,11.90
2022-11-08T17:05:54.063Z,11.77
2022-11-08T17:08:21.928Z,11.80
2022-11-08T17:10:48.756Z,11.55
2022-11-08T17:13:16.989Z,11.54
2022-11-08T17:15:45.288Z,11.44
2022-11-08T17:18:17.669Z,11.41
2022-11-08T17:20:44.903Z,11.39
2022-11-08T17:23:11.954Z,11.15
2022-11-08T17:25:44.174Z,11.03
2022-11-08T17:28:11.944Z,11.09
2022-11-08T17:30:44.711Z,11.01
2022-11-08T17:33:12.945Z,10.88
2022-11-08T17:35:43.913Z,11.05
2022-11-08T17:38:11.109Z,11.03
2022-11-08T17:40:37.909Z,11.12
2022-11-08T17:43:04.577Z,11.00
2022-11-08T17:45:31.274Z,11.03
2022-11-08T17:47:57.975Z,11.13
2022-11-08T17:50:24.992Z,11.01
2022-11-08T17:52:54.850Z,10.98
2022-11-08T17:55:21.603Z,11.09
2022-11-08T17:57:48.354Z,11.11
2022-11-08T18:00:16.377Z,11.16
2022-11-08T18:02:43.506Z,11.12
2022-11-08T18:05:10.580Z,11.22
2022-11-08T18:07:38.674Z,11.13
2022-11-08T18:10:07.076Z,11.13
2022-11-08T18:12:34.008Z,11.13
2022-11-08T18:15:01.228Z,11.26
2022-11-08T18:17:28.192Z,11.34
2022-11-08T18:19:54.921Z,11.35
2022-11-08T18:22:21.654Z,11.36
2022-11-08T18:24:50.059Z,11.38
2022-11-08T18:27:17.170Z,11.35
2022-11-08T18:29:43.980Z,11.42
2022-11-08T18:32:10.785Z,11.48
2022-11-08T18:34:40.147Z,11.50
2022-11-08T18:37:06.738Z,11.56
2022-11-08T18:39:33.738Z,11.47
2022-11-08T18:42:00.378Z,11.53
2022-11-08T18:44:27.006Z,11.62
2022-11-08T18:46:53.905Z,11.54
2022-11-08T18:49:20.700Z,11.55
2022-11-08T18:51:52.118Z,11.42
2022-11-08T18:54:19.855Z,11.49
2022-11-08T18:56:46.486Z,11.52
2022-11-08T18:59:13.259Z,11.41
2022-11-08T19:01:39.927Z,11.55
2022-11-08T19:04:06.790Z,11.44
2022-11-08T19:06:33.506Z,11.57
2022-11-08T19:09:00.307Z,11.52
2022-11-08T19:11:30.841Z,11.57
2022-11-08T19:13:58.966Z,11.53
2022-11-08T19:16:25.690Z,11.54
2022-11-08T19:18:52.434Z,11.49
2022-11-08T19:21:22.956Z,11.49
2022-11-08T19:23:50.779Z,11.50
2022-11-08T19:26:22.922Z,11.50
2022-11-08T19:28:50.198Z,11.51
2022-11-08T19:31:19.619Z,11.39
2022-11-08T19:33:47.504Z,11.42
2022-11-08T19:36:20.987Z,11.39
2022-11-08T19:38:47.915Z,11.22
2022-11-08T19:41:17.012Z,11.20
2022-11-08T19:43:44.315Z,11.11
2022-11-08T19:46:15.052Z,11.05
2022-11-08T19:48:43.969Z,10.86
2022-11-08T19:51:14.941Z,10.82
2022-11-08T19:53:44.810Z,10.74
2022-11-08T19:56:16.997Z,10.58
2022-11-08T19:58:44.130Z,10.57
2022-11-08T20:01:17.627Z,10.41
2022-11-08T20:03:45.342Z,9.98
2022-11-08T20:06:13.840Z,10.02
2022-11-08T20:08:40.681Z,10.19
2022-11-08T20:11:15.455Z,10.13
2022-11-08T20:13:42.578Z,10.10
2022-11-08T20:16:11.571Z,10.07
2022-11-08T20:18:38.664Z,10.01
2022-11-08T20:21:09.427Z,10.05
2022-11-08T20:23:36.501Z,10.18
2022-11-08T20:26:05.164Z,10.24
2022-11-08T20:28:32.196Z,10.22
2022-11-08T20:31:03.942Z,9.95
2022-11-08T20:33:33.448Z,9.93
2022-11-08T20:36:19.452Z,9.92
2022-11-08T20:38:48.540Z,10.12
2022-11-08T20:41:17.388Z,10.18
2022-11-08T20:43:45.986Z,10.19
2022-11-08T20:46:13.734Z,10.21
2022-11-08T20:48:42.794Z,10.22
2022-11-08T20:51:13.826Z,10.21
2022-11-08T20:53:42.181Z,10.28
2022-11-08T20:56:12.512Z,10.26
2022-11-08T20:58:39.259Z,10.17
2022-11-08T21:01:07.777Z,10.18
2022-11-08T21:03:35.353Z,10.14
2022-11-08T21:06:05.117Z,10.06
2022-11-08T21:11:19.701Z,9.90
2022-11-08T21:13:46.983Z,9.91
2022-11-08T21:16:29.267Z,9.78
2022-11-08T21:18:58.509Z,9.69
2022-11-08T21:21:25.906Z,9.60
2022-11-08T21:23:54.798Z,9.51
2022-11-08T21:26:22.536Z,9.31
2022-11-08T21:28:49.227Z,9.20
2022-11-08T21:31:16.218Z,9.11
2022-11-08T21:33:43.098Z,9.18
2022-11-08T21:36:10.946Z,9.13
2022-11-08T21:38:39.357Z,9.18
2022-11-08T21:41:08.081Z,9.13
2022-11-08T21:43:39.822Z,9.19
2022-11-08T21:46:21.008Z,9.06
2022-11-08T21:48:52.281Z,9.05
2022-11-08T21:51:18.871Z,9.02
2022-11-08T21:53:53.860Z,9.03
2022-11-08T21:56:22.686Z,9.06
2022-11-08T21:58:49.452Z,9.09
2022-11-08T22:01:16.823Z,9.03
2022-11-08T22:03:43.595Z,9.00
2022-11-08T22:06:10.326Z,8.97
2022-11-08T22:08:36.963Z,8.94
2022-11-08T22:11:03.809Z,8.94
2022-11-08T22:13:30.386Z,8.92
2022-11-08T22:15:57.103Z,8.96
2022-11-08T22:18:36.832Z,8.97
2022-11-08T22:21:29.184Z,8.95
2022-11-08T22:23:55.950Z,8.92
2022-11-08T22:26:22.579Z,8.95
2022-11-08T22:28:49.233Z,9.02
2022-11-08T22:31:15.983Z,8.94
2022-11-08T22:33:42.765Z,8.85
2022-11-08T22:36:09.657Z,8.94
2022-11-08T22:38:36.472Z,8.81
2022-11-08T22:41:03.626Z,8.94
2022-11-08T22:43:30.878Z,9.01
2022-11-08T22:45:57.525Z,8.93
2022-11-08T22:48:24.128Z,8.96
2022-11-08T22:50:50.737Z,8.98
2022-11-08T22:53:17.793Z,9.14
2022-11-08T22:55:45.304Z,9.17
2022-11-08T22:58:13.589Z,9.20
2022-11-08T23:03:21.409Z,9.04
2022-11-08T23:05:52.734Z,9.16
2022-11-08T23:08:20.298Z,9.25
2022-11-08T23:11:06.051Z,9.25
2022-11-08T23:13:51.664Z,9.25
2022-11-08T23:16:37.616Z,9.05
2022-11-08T23:19:51.987Z,9.09
2022-11-08T23:22:37.876Z,9.07
2022-11-08T23:25:05.064Z,9.02
2022-11-08T23:27:50.213Z,9.04
2022-11-08T23:30:37.343Z,8.86
2022-11-08T23:33:06.551Z,9.07
2022-11-08T23:35:33.697Z,9.10
2022-11-08T23:38:00.314Z,9.07
2022-11-08T23:40:45.580Z,8.95
2022-11-08T23:43:36.086Z,9.03
2022-11-08T23:46:12.639Z,8.88
2022-11-08T23:48:40.735Z,8.89
2022-11-08T23:51:07.898Z,8.67
2022-11-08T23:53:37.151Z,8.76
2022-11-08T23:56:04.336Z,8.66
2022-11-08T23:58:32.265Z,8.76
